Sinnamary, French Guiana
Current Conditions -  °F | °C
As of 8:30 PM on Friday 24 Oct 2014 (Local Time) from SOCA Reporting Station
Few Clouds Few Clouds  
Wind Chill: 77°   Ceiling: Unl
Heat Index: 78°   Visibility: 6mi
Dew Point: 72°   Wind: 0mph
Humidity: 83%   Direction: NA
Pressure: 29.83"   Gusts: NA
Location:  5.02°N, 52.95°W
Report Text: SOCA 242330Z AUTO 00000KT 9999 FEW020/// 25/22 Q1010
Loading
Personal Weather Stations






























Interactive Weather Map
Tropical Storm Tracking
New forecast layout! Learn more

10-Day Weather Forecast

Advertisements
Track Severe Weather on mobile